createdAt,value
2022-12-16T00:01:23.006Z,61.20
2022-12-16T00:06:43.517Z,61.20
2022-12-16T00:09:12.091Z,61.30
2022-12-16T00:11:40.855Z,61.50
2022-12-16T00:14:12.672Z,61.30
2022-12-16T00:17:10.487Z,61.50
2022-12-16T00:20:41.629Z,61.50
2022-12-16T00:38:19.448Z,61.30
2022-12-16T00:44:05.407Z,61.50
2022-12-16T00:46:59.536Z,61.50
2022-12-16T00:49:28.269Z,61.50
2022-12-16T00:51:56.731Z,61.50
2022-12-16T00:54:25.242Z,61.60
2022-12-16T00:56:59.845Z,61.80
2022-12-16T00:59:28.601Z,61.40
2022-12-16T01:02:12.006Z,61.60
2022-12-16T01:04:40.944Z,61.50
2022-12-16T01:07:10.217Z,62.30
2022-12-16T01:09:38.740Z,61.50
2022-12-16T01:12:09.039Z,61.50
2022-12-16T01:14:37.642Z,61.60
2022-12-16T01:17:06.051Z,61.70
2022-12-16T01:19:34.803Z,61.60
2022-12-16T01:22:03.492Z,61.60
2022-12-16T01:24:32.278Z,61.60
2022-12-16T01:27:18.097Z,61.70
2022-12-16T01:29:46.683Z,61.70
2022-12-16T01:32:16.200Z,61.90
2022-12-16T01:35:10.700Z,61.80
2022-12-16T01:37:46.877Z,61.60
2022-12-16T01:40:22.477Z,61.80
2022-12-16T01:43:11.733Z,61.40
2022-12-16T01:50:00.448Z,61.20
2022-12-16T01:52:34.230Z,61.80
2022-12-16T01:55:07.434Z,61.70
2022-12-16T01:57:42.211Z,61.90
2022-12-16T02:00:13.770Z,62.00
2022-12-16T02:02:45.109Z,62.00
2022-12-16T02:05:23.354Z,61.90
2022-12-16T02:08:03.501Z,62.20
2022-12-16T02:10:44.056Z,61.90
2022-12-16T02:13:20.687Z,62.10
2022-12-16T02:15:59.379Z,62.00
2022-12-16T02:18:38.915Z,61.90
2022-12-16T02:21:28.013Z,61.80
2022-12-16T02:24:31.217Z,62.10
2022-12-16T02:27:37.315Z,61.90
2022-12-16T02:30:36.724Z,61.90
2022-12-16T02:33:19.587Z,61.90
2022-12-16T02:35:55.682Z,62.10
2022-12-16T02:38:28.641Z,62.10
2022-12-16T02:41:02.396Z,62.00
2022-12-16T02:43:48.802Z,62.10
2022-12-16T02:46:20.845Z,61.80
2022-12-16T02:48:49.482Z,61.90
2022-12-16T02:51:18.706Z,62.30
2022-12-16T02:53:48.619Z,62.00
2022-12-16T02:56:31.440Z,62.10
2022-12-16T02:59:11.000Z,61.90
2022-12-16T03:01:47.986Z,62.10
2022-12-16T03:04:21.785Z,62.30
2022-12-16T03:06:53.657Z,62.20
2022-12-16T03:09:26.518Z,62.30
2022-12-16T03:11:56.991Z,62.30
2022-12-16T03:14:30.942Z,62.10
2022-12-16T03:17:01.321Z,62.20
2022-12-16T03:19:31.659Z,62.00
2022-12-16T03:22:04.905Z,61.90
2022-12-16T03:24:34.867Z,62.10
2022-12-16T03:27:09.925Z,62.20
2022-12-16T03:29:43.931Z,62.20
2022-12-16T03:32:18.000Z,62.30
2022-12-16T03:34:52.799Z,62.60
2022-12-16T03:37:23.636Z,62.60
2022-12-16T03:39:55.113Z,62.50
2022-12-16T03:42:26.477Z,62.50
2022-12-16T03:44:55.356Z,62.50
2022-12-16T03:47:27.321Z,62.70
2022-12-16T03:49:56.137Z,62.50
2022-12-16T03:52:24.798Z,62.60
2022-12-16T03:54:53.379Z,62.50
2022-12-16T03:57:22.303Z,62.60
2022-12-16T03:59:50.870Z,62.60
2022-12-16T04:02:19.916Z,62.50
2022-12-16T04:04:50.004Z,62.50
2022-12-16T04:07:24.968Z,62.50
2022-12-16T04:09:54.178Z,62.70
2022-12-16T04:12:40.636Z,62.50
2022-12-16T04:15:26.970Z,62.70
2022-12-16T04:18:12.905Z,62.40
2022-12-16T04:21:03.684Z,62.40
2022-12-16T04:23:51.755Z,62.40
2022-12-16T04:26:20.682Z,62.30
2022-12-16T04:28:49.284Z,62.60
2022-12-16T04:31:18.069Z,62.50
2022-12-16T04:34:18.583Z,62.30
2022-12-16T04:37:06.020Z,62.40
2022-12-16T04:39:52.081Z,62.40
2022-12-16T04:42:37.639Z,63.20
2022-12-16T04:45:24.596Z,62.50
2022-12-16T04:48:12.118Z,62.50
2022-12-16T04:50:57.908Z,62.30
2022-12-16T04:53:45.453Z,62.30
2022-12-16T04:56:27.857Z,62.40
2022-12-16T04:59:13.836Z,62.30
2022-12-16T05:02:00.236Z,62.20
2022-12-16T05:04:46.213Z,62.10
2022-12-16T05:07:37.920Z,62.30
2022-12-16T05:10:27.163Z,62.40
2022-12-16T05:13:13.095Z,62.20
2022-12-16T05:15:59.257Z,62.40
2022-12-16T05:18:45.400Z,62.50
2022-12-16T05:21:30.878Z,62.50
2022-12-16T05:24:25.989Z,62.10
2022-12-16T05:27:13.136Z,62.10
2022-12-16T05:29:59.107Z,62.30
2022-12-16T05:32:44.765Z,62.30
2022-12-16T05:35:57.614Z,62.50
2022-12-16T05:38:43.285Z,62.10
2022-12-16T05:41:29.547Z,62.10
2022-12-16T05:44:17.315Z,62.10
2022-12-16T05:47:05.121Z,61.90
2022-12-16T05:50:16.025Z,62.10
2022-12-16T05:53:08.119Z,61.70
2022-12-16T05:56:21.887Z,62.00
2022-12-16T05:59:10.705Z,62.20
2022-12-16T06:01:58.526Z,62.40
2022-12-16T06:04:44.853Z,62.30
2022-12-16T06:07:31.490Z,62.40
2022-12-16T06:10:21.790Z,62.50
2022-12-16T06:13:12.953Z,62.40
2022-12-16T06:16:02.490Z,62.50
2022-12-16T06:18:55.345Z,62.60
2022-12-16T06:21:42.488Z,62.10
2022-12-16T06:24:39.463Z,62.20
2022-12-16T06:27:31.450Z,62.30
2022-12-16T06:30:17.294Z,62.20
2022-12-16T06:33:03.095Z,62.30
2022-12-16T06:35:51.621Z,62.00
2022-12-16T06:39:01.481Z,61.90
2022-12-16T06:41:54.111Z,62.20
2022-12-16T06:47:27.274Z,62.00
2022-12-16T06:50:13.592Z,62.20
2022-12-16T06:53:02.244Z,62.10
2022-12-16T06:55:52.928Z,62.20
2022-12-16T06:58:39.075Z,62.30
2022-12-16T07:01:24.866Z,62.20
2022-12-16T07:04:16.102Z,62.30
2022-12-16T07:07:02.691Z,62.20
2022-12-16T07:09:50.887Z,62.30
2022-12-16T07:12:36.842Z,62.20
2022-12-16T07:15:23.614Z,62.60
2022-12-16T07:18:09.987Z,62.60
2022-12-16T07:20:55.973Z,62.50
2022-12-16T07:23:43.713Z,62.50
2022-12-16T07:26:31.374Z,62.40
2022-12-16T07:29:16.927Z,62.50
2022-12-16T07:32:01.487Z,62.40
2022-12-16T07:34:50.236Z,62.40
2022-12-16T07:37:38.656Z,62.20
2022-12-16T07:40:25.132Z,62.40
2022-12-16T07:43:11.975Z,62.40
2022-12-16T07:45:57.770Z,62.50
2022-12-16T07:48:45.122Z,62.50
2022-12-16T10:21:33.573Z,61.50
2022-12-16T10:24:25.741Z,61.30
2022-12-16T10:27:16.521Z,61.60
2022-12-16T10:30:04.783Z,61.50
2022-12-16T10:32:57.875Z,61.80
2022-12-16T10:35:47.894Z,61.50
2022-12-16T10:38:41.070Z,61.30
2022-12-16T10:41:28.546Z,61.10
2022-12-16T10:44:16.209Z,60.90
2022-12-16T10:47:05.114Z,60.70
2022-12-16T10:49:55.081Z,61.10
2022-12-16T10:52:41.538Z,61.40
2022-12-16T10:55:40.631Z,61.40
2022-12-16T10:58:36.826Z,61.20
2022-12-16T11:01:40.199Z,61.20
2022-12-16T11:04:55.620Z,60.90
2022-12-16T11:07:53.876Z,60.70
2022-12-16T11:10:53.812Z,60.90
2022-12-16T11:13:45.374Z,60.50
2022-12-16T11:16:34.490Z,60.90
2022-12-16T11:19:20.892Z,60.90
2022-12-16T11:22:07.251Z,61.10
2022-12-16T11:24:53.320Z,60.90
2022-12-16T11:27:45.061Z,61.10
2022-12-16T11:30:39.700Z,61.30
2022-12-16T11:33:37.463Z,61.10
2022-12-16T11:36:29.741Z,60.70
2022-12-16T11:39:16.027Z,60.10
2022-12-16T11:42:05.869Z,60.30
2022-12-16T11:44:57.426Z,60.30
2022-12-16T11:47:54.512Z,60.50
2022-12-16T11:50:42.940Z,60.40
2022-12-16T11:53:45.112Z,60.50
2022-12-16T11:56:38.471Z,60.10
2022-12-16T11:59:30.492Z,60.20
2022-12-16T12:02:22.477Z,60.40
2022-12-16T12:05:11.503Z,60.50
2022-12-16T12:08:06.821Z,60.70
2022-12-16T12:11:11.634Z,60.10
2022-12-16T12:14:08.482Z,60.10
2022-12-16T12:20:45.871Z,60.10
2022-12-16T12:23:51.356Z,60.60
2022-12-16T12:26:47.025Z,60.10
2022-12-16T12:29:41.618Z,59.80
2022-12-16T12:32:44.597Z,59.90
2022-12-16T12:35:47.483Z,59.60
2022-12-16T12:38:43.103Z,59.70
2022-12-16T12:41:37.678Z,59.60
2022-12-16T12:44:42.447Z,59.80
2022-12-16T12:47:44.481Z,59.90
2022-12-16T12:50:42.713Z,59.90
2022-12-16T12:53:43.528Z,60.00
2022-12-16T12:56:41.949Z,59.70
2022-12-16T14:29:20.600Z,59.70
2022-12-16T14:32:13.110Z,59.50
2022-12-16T14:51:56.055Z,59.60
2022-12-16T15:25:44.670Z,59.90
2022-12-16T15:35:49.305Z,59.80
2022-12-16T15:48:18.862Z,60.30
2022-12-16T18:59:37.066Z,61.70
2022-12-16T19:02:27.453Z,61.90
2022-12-16T19:54:30.426Z,61.60
2022-12-16T19:57:32.196Z,61.60
2022-12-16T20:03:47.820Z,61.90
2022-12-16T20:06:45.541Z,61.80
2022-12-16T20:12:43.444Z,61.90
2022-12-16T20:18:46.650Z,62.10
2022-12-16T20:21:56.349Z,62.10
2022-12-16T20:24:44.998Z,61.80
2022-12-16T20:27:33.741Z,61.90
2022-12-16T20:30:25.211Z,62.10
2022-12-16T20:33:17.423Z,61.90
2022-12-16T20:36:15.784Z,62.10
2022-12-16T20:39:18.740Z,61.70
2022-12-16T20:42:19.997Z,61.90
2022-12-16T20:45:45.005Z,62.30
2022-12-16T20:52:20.951Z,62.20
2022-12-16T20:55:10.169Z,62.40
2022-12-16T20:58:03.228Z,62.20
2022-12-16T21:00:52.651Z,62.30
2022-12-16T21:03:47.426Z,62.10
2022-12-16T21:06:34.919Z,62.10
2022-12-16T21:09:36.425Z,62.10
2022-12-16T22:31:00.862Z,62.00
2022-12-16T22:34:00.826Z,62.10
2022-12-16T22:36:51.283Z,62.10
2022-12-16T22:39:46.307Z,62.30
2022-12-16T22:42:32.872Z,62.30
2022-12-16T22:45:19.353Z,62.50
2022-12-16T22:48:06.226Z,62.60
2022-12-16T22:50:56.605Z,62.50
2022-12-16T22:53:46.221Z,62.40
2022-12-16T22:56:42.314Z,62.10
2022-12-16T22:59:35.940Z,62.50
2022-12-16T23:02:28.076Z,62.30
2022-12-16T23:05:20.065Z,62.10
2022-12-16T23:08:19.008Z,62.30
2022-12-16T23:11:18.407Z,62.30
2022-12-16T23:14:07.129Z,62.00
2022-12-16T23:17:00.815Z,62.20
2022-12-16T23:19:49.319Z,62.20
2022-12-16T23:22:35.727Z,62.50
2022-12-16T23:25:41.194Z,62.40
2022-12-16T23:28:29.752Z,62.30
2022-12-16T23:31:17.202Z,62.20
2022-12-16T23:34:03.504Z,62.30
2022-12-16T23:36:50.223Z,62.40
2022-12-16T23:39:44.312Z,62.70
2022-12-16T23:42:36.263Z,62.50
2022-12-16T23:45:44.270Z,62.50
2022-12-16T23:48:36.743Z,62.50
2022-12-16T23:51:27.774Z,62.50
2022-12-16T23:54:21.318Z,62.50
2022-12-16T23:57:14.520Z,62.60
